sensor_id;sensor_type;location;lat;lon;timestamp;P1;durP1;ratioP1;P2;durP2;ratioP2
37593;SDS011;23441;50.856;6.076;2024-01-27T00:01:42;20.33;;;4.35;;
37593;SDS011;23441;50.856;6.076;2024-01-27T00:04:29;17.42;;;4.40;;
37593;SDS011;23441;50.856;6.076;2024-01-27T00:07:15;17.13;;;3.90;;
37593;SDS011;23441;50.856;6.076;2024-01-27T00:10:03;13.77;;;3.95;;
37593;SDS011;23441;50.856;6.076;2024-01-27T00:12:49;20.27;;;5.45;;
37593;SDS011;23441;50.856;6.076;2024-01-27T00:15:35;16.97;;;4.00;;
37593;SDS011;23441;50.856;6.076;2024-01-27T00:18:21;17.52;;;3.92;;
37593;SDS011;23441;50.856;6.076;2024-01-27T00:21:07;16.77;;;4.35;;
37593;SDS011;23441;50.856;6.076;2024-01-27T00:23:53;10.40;;;4.10;;
37593;SDS011;23441;50.856;6.076;2024-01-27T00:26:40;16.52;;;4.35;;
37593;SDS011;23441;50.856;6.076;2024-01-27T00:29:26;14.52;;;4.25;;
37593;SDS011;23441;50.856;6.076;2024-01-27T00:32:12;12.95;;;3.70;;
37593;SDS011;23441;50.856;6.076;2024-01-27T00:34:58;16.60;;;3.60;;
37593;SDS011;23441;50.856;6.076;2024-01-27T00:37:44;11.43;;;3.72;;
37593;SDS011;23441;50.856;6.076;2024-01-27T00:40:30;18.92;;;4.25;;
37593;SDS011;23441;50.856;6.076;2024-01-27T00:43:16;13.77;;;4.00;;
37593;SDS011;23441;50.856;6.076;2024-01-27T00:46:02;12.23;;;3.60;;
37593;SDS011;23441;50.856;6.076;2024-01-27T00:48:48;10.18;;;3.53;;
37593;SDS011;23441;50.856;6.076;2024-01-27T00:51:34;12.27;;;3.20;;
37593;SDS011;23441;50.856;6.076;2024-01-27T00:54:19;15.73;;;3.90;;
37593;SDS011;23441;50.856;6.076;2024-01-27T00:57:05;20.77;;;3.83;;
37593;SDS011;23441;50.856;6.076;2024-01-27T00:59:51;13.05;;;3.60;;
37593;SDS011;23441;50.856;6.076;2024-01-27T01:02:38;17.37;;;3.83;;
37593;SDS011;23441;50.856;6.076;2024-01-27T01:05:24;16.70;;;4.45;;
37593;SDS011;23441;50.856;6.076;2024-01-27T01:08:09;20.83;;;3.83;;
37593;SDS011;23441;50.856;6.076;2024-01-27T01:10:55;21.58;;;4.43;;
37593;SDS011;23441;50.856;6.076;2024-01-27T01:13:41;14.77;;;3.67;;
37593;SDS011;23441;50.856;6.076;2024-01-27T01:16:27;9.67;;;3.50;;
37593;SDS011;23441;50.856;6.076;2024-01-27T01:19:13;15.13;;;3.50;;
37593;SDS011;23441;50.856;6.076;2024-01-27T01:21:59;18.33;;;4.25;;
37593;SDS011;23441;50.856;6.076;2024-01-27T01:24:45;12.38;;;3.63;;
37593;SDS011;23441;50.856;6.076;2024-01-27T01:27:31;15.83;;;4.23;;
37593;SDS011;23441;50.856;6.076;2024-01-27T01:30:17;15.07;;;3.65;;
37593;SDS011;23441;50.856;6.076;2024-01-27T01:33:03;14.18;;;3.70;;
37593;SDS011;23441;50.856;6.076;2024-01-27T01:35:49;18.42;;;3.97;;
37593;SDS011;23441;50.856;6.076;2024-01-27T01:38:35;21.02;;;3.50;;
37593;SDS011;23441;50.856;6.076;2024-01-27T01:41:21;17.15;;;3.63;;
37593;SDS011;23441;50.856;6.076;2024-01-27T01:44:07;21.13;;;4.63;;
37593;SDS011;23441;50.856;6.076;2024-01-27T01:46:53;11.50;;;3.03;;
37593;SDS011;23441;50.856;6.076;2024-01-27T01:49:39;8.53;;;2.60;;
37593;SDS011;23441;50.856;6.076;2024-01-27T01:52:25;20.35;;;3.78;;
37593;SDS011;23441;50.856;6.076;2024-01-27T01:55:11;17.48;;;4.07;;
37593;SDS011;23441;50.856;6.076;2024-01-27T01:57:58;16.93;;;3.70;;
37593;SDS011;23441;50.856;6.076;2024-01-27T02:00:44;12.05;;;3.75;;
37593;SDS011;23441;50.856;6.076;2024-01-27T02:03:30;14.98;;;3.30;;
37593;SDS011;23441;50.856;6.076;2024-01-27T02:06:16;18.23;;;4.10;;
37593;SDS011;23441;50.856;6.076;2024-01-27T02:09:02;10.15;;;3.50;;
37593;SDS011;23441;50.856;6.076;2024-01-27T02:11:48;14.20;;;3.27;;
37593;SDS011;23441;50.856;6.076;2024-01-27T02:14:34;22.53;;;3.53;;
37593;SDS011;23441;50.856;6.076;2024-01-27T02:17:20;15.20;;;3.60;;
37593;SDS011;23441;50.856;6.076;2024-01-27T02:20:06;9.20;;;3.25;;
37593;SDS011;23441;50.856;6.076;2024-01-27T02:22:53;13.52;;;3.45;;
37593;SDS011;23441;50.856;6.076;2024-01-27T02:25:39;21.80;;;3.83;;
37593;SDS011;23441;50.856;6.076;2024-01-27T02:28:25;15.70;;;3.80;;
37593;SDS011;23441;50.856;6.076;2024-01-27T02:31:11;13.83;;;4.23;;
37593;SDS011;23441;50.856;6.076;2024-01-27T02:33:57;7.95;;;3.28;;
37593;SDS011;23441;50.856;6.076;2024-01-27T02:36:42;8.05;;;3.22;;
37593;SDS011;23441;50.856;6.076;2024-01-27T02:39:29;14.83;;;3.97;;
37593;SDS011;23441;50.856;6.076;2024-01-27T02:42:15;16.50;;;4.32;;
37593;SDS011;23441;50.856;6.076;2024-01-27T02:45:01;16.05;;;4.30;;
37593;SDS011;23441;50.856;6.076;2024-01-27T02:47:47;13.45;;;3.42;;
37593;SDS011;23441;50.856;6.076;2024-01-27T02:50:33;15.85;;;3.10;;
37593;SDS011;23441;50.856;6.076;2024-01-27T02:53:19;14.15;;;3.22;;
37593;SDS011;23441;50.856;6.076;2024-01-27T02:56:08;13.20;;;4.03;;
37593;SDS011;23441;50.856;6.076;2024-01-27T02:58:54;8.68;;;2.85;;
37593;SDS011;23441;50.856;6.076;2024-01-27T03:01:40;11.23;;;3.30;;
37593;SDS011;23441;50.856;6.076;2024-01-27T03:04:26;12.67;;;3.73;;
37593;SDS011;23441;50.856;6.076;2024-01-27T03:07:12;16.30;;;4.07;;
37593;SDS011;23441;50.856;6.076;2024-01-27T03:09:58;12.35;;;3.92;;
37593;SDS011;23441;50.856;6.076;2024-01-27T03:12:44;15.00;;;3.30;;
37593;SDS011;23441;50.856;6.076;2024-01-27T03:15:30;9.87;;;3.33;;
37593;SDS011;23441;50.856;6.076;2024-01-27T03:18:16;11.63;;;4.00;;
37593;SDS011;23441;50.856;6.076;2024-01-27T03:21:02;12.88;;;3.80;;
37593;SDS011;23441;50.856;6.076;2024-01-27T03:23:48;17.77;;;3.80;;
37593;SDS011;23441;50.856;6.076;2024-01-27T03:26:34;13.83;;;3.47;;
37593;SDS011;23441;50.856;6.076;2024-01-27T03:29:20;15.60;;;3.45;;
37593;SDS011;23441;50.856;6.076;2024-01-27T03:32:06;15.20;;;3.20;;
37593;SDS011;23441;50.856;6.076;2024-01-27T03:34:52;11.10;;;3.33;;
37593;SDS011;23441;50.856;6.076;2024-01-27T03:37:38;21.10;;;4.50;;
37593;SDS011;23441;50.856;6.076;2024-01-27T03:40:24;13.30;;;3.65;;
37593;SDS011;23441;50.856;6.076;2024-01-27T03:43:10;16.60;;;4.32;;
37593;SDS011;23441;50.856;6.076;2024-01-27T03:45:56;15.60;;;3.72;;
37593;SDS011;23441;50.856;6.076;2024-01-27T03:48:43;11.03;;;3.67;;
37593;SDS011;23441;50.856;6.076;2024-01-27T03:51:29;22.97;;;3.97;;
37593;SDS011;23441;50.856;6.076;2024-01-27T03:54:15;21.03;;;4.83;;
37593;SDS011;23441;50.856;6.076;2024-01-27T03:57:01;14.23;;;4.80;;
37593;SDS011;23441;50.856;6.076;2024-01-27T03:59:47;15.00;;;4.83;;
37593;SDS011;23441;50.856;6.076;2024-01-27T04:02:32;12.83;;;4.67;;
37593;SDS011;23441;50.856;6.076;2024-01-27T04:05:19;17.37;;;4.97;;
37593;SDS011;23441;50.856;6.076;2024-01-27T04:08:05;15.10;;;4.33;;
37593;SDS011;23441;50.856;6.076;2024-01-27T04:10:51;19.83;;;4.57;;
37593;SDS011;23441;50.856;6.076;2024-01-27T04:13:37;17.43;;;4.30;;
37593;SDS011;23441;50.856;6.076;2024-01-27T04:16:23;14.10;;;4.40;;
37593;SDS011;23441;50.856;6.076;2024-01-27T04:19:09;16.93;;;4.37;;
37593;SDS011;23441;50.856;6.076;2024-01-27T04:21:55;12.70;;;4.03;;
37593;SDS011;23441;50.856;6.076;2024-01-27T04:24:41;14.57;;;4.10;;
37593;SDS011;23441;50.856;6.076;2024-01-27T04:27:27;14.37;;;3.87;;
37593;SDS011;23441;50.856;6.076;2024-01-27T04:30:13;17.83;;;4.23;;
37593;SDS011;23441;50.856;6.076;2024-01-27T04:32:59;11.87;;;4.57;;
37593;SDS011;23441;50.856;6.076;2024-01-27T04:35:45;17.07;;;4.23;;
37593;SDS011;23441;50.856;6.076;2024-01-27T04:38:33;17.80;;;4.03;;
37593;SDS011;23441;50.856;6.076;2024-01-27T04:41:19;18.03;;;4.33;;
37593;SDS011;23441;50.856;6.076;2024-01-27T04:44:05;17.83;;;4.10;;
37593;SDS011;23441;50.856;6.076;2024-01-27T04:46:51;14.77;;;4.00;;
37593;SDS011;23441;50.856;6.076;2024-01-27T04:49:37;17.13;;;4.60;;
37593;SDS011;23441;50.856;6.076;2024-01-27T04:52:23;18.57;;;4.53;;
37593;SDS011;23441;50.856;6.076;2024-01-27T04:55:09;12.83;;;3.63;;
37593;SDS011;23441;50.856;6.076;2024-01-27T04:57:55;17.50;;;4.03;;
37593;SDS011;23441;50.856;6.076;2024-01-27T05:00:43;10.77;;;3.73;;
37593;SDS011;23441;50.856;6.076;2024-01-27T05:03:29;11.30;;;3.97;;
37593;SDS011;23441;50.856;6.076;2024-01-27T05:06:15;11.47;;;3.83;;
37593;SDS011;23441;50.856;6.076;2024-01-27T05:09:02;19.37;;;4.20;;
37593;SDS011;23441;50.856;6.076;2024-01-27T05:11:49;17.73;;;5.03;;
37593;SDS011;23441;50.856;6.076;2024-01-27T05:14:42;13.23;;;4.13;;
37593;SDS011;23441;50.856;6.076;2024-01-27T05:17:30;17.60;;;4.30;;
37593;SDS011;23441;50.856;6.076;2024-01-27T05:20:16;17.37;;;4.40;;
37593;SDS011;23441;50.856;6.076;2024-01-27T05:23:03;12.30;;;4.33;;
37593;SDS011;23441;50.856;6.076;2024-01-27T05:25:49;14.03;;;4.30;;
37593;SDS011;23441;50.856;6.076;2024-01-27T05:28:35;15.47;;;4.60;;
37593;SDS011;23441;50.856;6.076;2024-01-27T05:31:21;18.63;;;4.60;;
37593;SDS011;23441;50.856;6.076;2024-01-27T05:34:07;22.97;;;4.40;;
37593;SDS011;23441;50.856;6.076;2024-01-27T05:36:53;17.43;;;4.10;;
37593;SDS011;23441;50.856;6.076;2024-01-27T05:39:39;14.63;;;4.00;;
37593;SDS011;23441;50.856;6.076;2024-01-27T05:42:25;13.90;;;3.93;;
37593;SDS011;23441;50.856;6.076;2024-01-27T05:45:11;12.07;;;4.27;;
37593;SDS011;23441;50.856;6.076;2024-01-27T05:47:57;18.07;;;4.77;;
37593;SDS011;23441;50.856;6.076;2024-01-27T05:50:43;16.57;;;3.80;;
37593;SDS011;23441;50.856;6.076;2024-01-27T05:53:29;18.20;;;5.23;;
37593;SDS011;23441;50.856;6.076;2024-01-27T05:56:15;14.57;;;4.03;;
37593;SDS011;23441;50.856;6.076;2024-01-27T05:59:04;20.40;;;4.13;;
37593;SDS011;23441;50.856;6.076;2024-01-27T06:01:50;13.27;;;4.20;;
37593;SDS011;23441;50.856;6.076;2024-01-27T06:04:36;18.67;;;4.50;;
37593;SDS011;23441;50.856;6.076;2024-01-27T06:07:22;21.10;;;4.63;;
37593;SDS011;23441;50.856;6.076;2024-01-27T06:10:08;14.73;;;3.97;;
37593;SDS011;23441;50.856;6.076;2024-01-27T06:12:55;20.53;;;4.17;;
37593;SDS011;23441;50.856;6.076;2024-01-27T06:15:41;11.67;;;3.90;;
37593;SDS011;23441;50.856;6.076;2024-01-27T06:18:27;19.00;;;4.27;;
37593;SDS011;23441;50.856;6.076;2024-01-27T06:21:13;20.47;;;4.77;;
37593;SDS011;23441;50.856;6.076;2024-01-27T06:23:59;16.53;;;4.13;;
37593;SDS011;23441;50.856;6.076;2024-01-27T06:26:45;16.00;;;3.93;;
37593;SDS011;23441;50.856;6.076;2024-01-27T06:29:30;16.47;;;4.43;;
37593;SDS011;23441;50.856;6.076;2024-01-27T06:32:16;15.47;;;4.53;;
37593;SDS011;23441;50.856;6.076;2024-01-27T06:35:03;13.40;;;4.03;;
37593;SDS011;23441;50.856;6.076;2024-01-27T06:37:49;13.37;;;4.23;;
37593;SDS011;23441;50.856;6.076;2024-01-27T06:40:35;22.30;;;4.30;;
37593;SDS011;23441;50.856;6.076;2024-01-27T06:43:21;13.83;;;3.57;;
37593;SDS011;23441;50.856;6.076;2024-01-27T06:46:08;13.70;;;3.53;;
37593;SDS011;23441;50.856;6.076;2024-01-27T06:48:54;23.90;;;4.67;;
37593;SDS011;23441;50.856;6.076;2024-01-27T06:51:40;16.63;;;4.33;;
37593;SDS011;23441;50.856;6.076;2024-01-27T06:54:26;17.80;;;5.50;;
37593;SDS011;23441;50.856;6.076;2024-01-27T06:57:18;10.77;;;4.07;;
37593;SDS011;23441;50.856;6.076;2024-01-27T07:00:05;15.10;;;4.03;;
37593;SDS011;23441;50.856;6.076;2024-01-27T07:02:52;15.73;;;4.40;;
37593;SDS011;23441;50.856;6.076;2024-01-27T07:05:39;18.77;;;4.50;;
37593;SDS011;23441;50.856;6.076;2024-01-27T07:08:26;17.07;;;4.40;;
37593;SDS011;23441;50.856;6.076;2024-01-27T07:11:12;19.40;;;4.57;;
37593;SDS011;23441;50.856;6.076;2024-01-27T07:13:58;18.87;;;5.30;;
37593;SDS011;23441;50.856;6.076;2024-01-27T07:16:44;13.53;;;4.47;;
37593;SDS011;23441;50.856;6.076;2024-01-27T07:19:30;13.47;;;4.23;;
37593;SDS011;23441;50.856;6.076;2024-01-27T07:22:16;17.47;;;4.80;;
37593;SDS011;23441;50.856;6.076;2024-01-27T07:25:02;12.33;;;4.27;;
37593;SDS011;23441;50.856;6.076;2024-01-27T07:27:48;15.70;;;3.67;;
37593;SDS011;23441;50.856;6.076;2024-01-27T07:30:34;14.20;;;4.87;;
37593;SDS011;23441;50.856;6.076;2024-01-27T07:33:20;13.53;;;3.40;;
37593;SDS011;23441;50.856;6.076;2024-01-27T07:36:06;13.47;;;3.73;;
37593;SDS011;23441;50.856;6.076;2024-01-27T07:38:52;16.10;;;4.10;;
37593;SDS011;23441;50.856;6.076;2024-01-27T07:41:38;14.97;;;3.63;;
37593;SDS011;23441;50.856;6.076;2024-01-27T07:44:24;15.30;;;3.30;;
37593;SDS011;23441;50.856;6.076;2024-01-27T07:47:10;16.93;;;3.80;;
37593;SDS011;23441;50.856;6.076;2024-01-27T07:49:56;16.33;;;3.93;;
37593;SDS011;23441;50.856;6.076;2024-01-27T07:52:42;13.40;;;4.07;;
37593;SDS011;23441;50.856;6.076;2024-01-27T07:55:28;13.07;;;3.97;;
37593;SDS011;23441;50.856;6.076;2024-01-27T07:58:13;15.20;;;3.57;;
37593;SDS011;23441;50.856;6.076;2024-01-27T08:00:59;12.10;;;3.30;;
37593;SDS011;23441;50.856;6.076;2024-01-27T08:03:45;17.37;;;3.03;;
37593;SDS011;23441;50.856;6.076;2024-01-27T08:06:31;16.30;;;3.77;;
37593;SDS011;23441;50.856;6.076;2024-01-27T08:09:17;9.70;;;3.00;;
37593;SDS011;23441;50.856;6.076;2024-01-27T08:12:04;14.30;;;3.50;;
37593;SDS011;23441;50.856;6.076;2024-01-27T08:14:50;12.33;;;3.17;;
37593;SDS011;23441;50.856;6.076;2024-01-27T08:17:36;8.50;;;2.73;;
37593;SDS011;23441;50.856;6.076;2024-01-27T08:20:22;13.07;;;3.80;;
37593;SDS011;23441;50.856;6.076;2024-01-27T08:23:08;11.43;;;4.23;;
37593;SDS011;23441;50.856;6.076;2024-01-27T08:25:54;12.47;;;4.23;;
37593;SDS011;23441;50.856;6.076;2024-01-27T08:28:40;10.57;;;4.33;;
37593;SDS011;23441;50.856;6.076;2024-01-27T08:31:26;15.50;;;4.57;;
37593;SDS011;23441;50.856;6.076;2024-01-27T08:34:12;13.70;;;4.20;;
37593;SDS011;23441;50.856;6.076;2024-01-27T08:36:59;16.65;;;5.88;;
37593;SDS011;23441;50.856;6.076;2024-01-27T08:39:47;13.23;;;4.33;;
37593;SDS011;23441;50.856;6.076;2024-01-27T08:42:33;9.93;;;3.67;;
37593;SDS011;23441;50.856;6.076;2024-01-27T08:45:19;12.43;;;3.83;;
37593;SDS011;23441;50.856;6.076;2024-01-27T08:48:05;15.53;;;3.43;;
37593;SDS011;23441;50.856;6.076;2024-01-27T08:50:53;7.53;;;3.38;;
37593;SDS011;23441;50.856;6.076;2024-01-27T08:53:39;12.32;;;3.85;;
37593;SDS011;23441;50.856;6.076;2024-01-27T08:56:24;12.00;;;3.30;;
37593;SDS011;23441;50.856;6.076;2024-01-27T08:59:11;18.40;;;3.00;;
37593;SDS011;23441;50.856;6.076;2024-01-27T09:01:56;16.23;;;3.05;;
37593;SDS011;23441;50.856;6.076;2024-01-27T09:04:42;14.00;;;3.38;;
37593;SDS011;23441;50.856;6.076;2024-01-27T09:07:28;13.10;;;2.60;;
37593;SDS011;23441;50.856;6.076;2024-01-27T09:10:14;14.43;;;3.40;;
37593;SDS011;23441;50.856;6.076;2024-01-27T09:13:01;12.18;;;3.25;;
37593;SDS011;23441;50.856;6.076;2024-01-27T09:15:47;12.85;;;2.97;;
37593;SDS011;23441;50.856;6.076;2024-01-27T09:18:34;11.10;;;2.80;;
37593;SDS011;23441;50.856;6.076;2024-01-27T09:21:20;12.07;;;2.60;;
37593;SDS011;23441;50.856;6.076;2024-01-27T09:24:07;13.70;;;3.42;;
37593;SDS011;23441;50.856;6.076;2024-01-27T09:26:54;17.88;;;3.33;;
37593;SDS011;23441;50.856;6.076;2024-01-27T09:29:40;6.78;;;2.20;;
37593;SDS011;23441;50.856;6.076;2024-01-27T09:32:26;10.25;;;2.50;;
37593;SDS011;23441;50.856;6.076;2024-01-27T09:35:12;9.20;;;2.55;;
37593;SDS011;23441;50.856;6.076;2024-01-27T09:37:58;7.68;;;2.60;;
37593;SDS011;23441;50.856;6.076;2024-01-27T09:40:44;8.88;;;3.05;;
37593;SDS011;23441;50.856;6.076;2024-01-27T09:43:31;15.68;;;2.80;;
37593;SDS011;23441;50.856;6.076;2024-01-27T09:46:18;8.45;;;2.70;;
37593;SDS011;23441;50.856;6.076;2024-01-27T09:49:04;10.55;;;2.47;;
37593;SDS011;23441;50.856;6.076;2024-01-27T09:51:50;13.75;;;2.97;;
37593;SDS011;23441;50.856;6.076;2024-01-27T09:54:36;13.88;;;3.00;;
37593;SDS011;23441;50.856;6.076;2024-01-27T09:57:22;9.95;;;2.92;;
37593;SDS011;23441;50.856;6.076;2024-01-27T10:00:09;8.65;;;2.60;;
37593;SDS011;23441;50.856;6.076;2024-01-27T10:03:01;8.25;;;3.20;;
37593;SDS011;23441;50.856;6.076;2024-01-27T10:05:50;10.85;;;2.78;;
37593;SDS011;23441;50.856;6.076;2024-01-27T10:08:53;8.32;;;2.90;;
37593;SDS011;23441;50.856;6.076;2024-01-27T10:11:40;16.08;;;3.80;;
37593;SDS011;23441;50.856;6.076;2024-01-27T10:14:37;13.60;;;3.13;;
37593;SDS011;23441;50.856;6.076;2024-01-27T10:17:27;12.68;;;2.90;;
37593;SDS011;23441;50.856;6.076;2024-01-27T10:20:17;9.68;;;2.90;;
37593;SDS011;23441;50.856;6.076;2024-01-27T10:23:13;12.05;;;3.33;;
37593;SDS011;23441;50.856;6.076;2024-01-27T10:25:59;12.88;;;3.10;;
37593;SDS011;23441;50.856;6.076;2024-01-27T10:28:52;8.45;;;3.00;;
37593;SDS011;23441;50.856;6.076;2024-01-27T10:31:40;10.98;;;2.60;;
37593;SDS011;23441;50.856;6.076;2024-01-27T10:34:26;11.02;;;2.65;;
37593;SDS011;23441;50.856;6.076;2024-01-27T10:37:12;16.65;;;3.45;;
37593;SDS011;23441;50.856;6.076;2024-01-27T10:40:02;11.63;;;2.72;;
37593;SDS011;23441;50.856;6.076;2024-01-27T10:43:08;4.97;;;2.25;;
37593;SDS011;23441;50.856;6.076;2024-01-27T10:45:54;16.50;;;3.35;;
37593;SDS011;23441;50.856;6.076;2024-01-27T10:48:41;10.70;;;3.25;;
37593;SDS011;23441;50.856;6.076;2024-01-27T10:51:30;9.45;;;2.65;;
37593;SDS011;23441;50.856;6.076;2024-01-27T10:54:25;13.82;;;2.83;;
37593;SDS011;23441;50.856;6.076;2024-01-27T10:57:11;15.80;;;2.78;;
37593;SDS011;23441;50.856;6.076;2024-01-27T11:00:02;14.15;;;3.22;;
37593;SDS011;23441;50.856;6.076;2024-01-27T11:02:51;12.05;;;2.53;;
37593;SDS011;23441;50.856;6.076;2024-01-27T11:05:40;13.00;;;2.25;;
37593;SDS011;23441;50.856;6.076;2024-01-27T11:08:26;15.60;;;3.15;;
37593;SDS011;23441;50.856;6.076;2024-01-27T11:11:13;11.68;;;2.58;;
37593;SDS011;23441;50.856;6.076;2024-01-27T11:13:59;9.20;;;2.90;;
37593;SDS011;23441;50.856;6.076;2024-01-27T11:16:45;8.50;;;2.72;;
37593;SDS011;23441;50.856;6.076;2024-01-27T11:19:32;13.75;;;3.03;;
37593;SDS011;23441;50.856;6.076;2024-01-27T11:22:23;8.20;;;2.80;;
37593;SDS011;23441;50.856;6.076;2024-01-27T11:25:17;11.48;;;2.10;;
37593;SDS011;23441;50.856;6.076;2024-01-27T11:28:10;7.57;;;2.13;;
37593;SDS011;23441;50.856;6.076;2024-01-27T11:31:03;9.88;;;1.77;;
37593;SDS011;23441;50.856;6.076;2024-01-27T11:33:50;9.65;;;2.17;;
37593;SDS011;23441;50.856;6.076;2024-01-27T11:36:39;7.57;;;2.17;;
37593;SDS011;23441;50.856;6.076;2024-01-27T11:39:27;8.77;;;1.95;;
37593;SDS011;23441;50.856;6.076;2024-01-27T11:42:14;7.93;;;2.03;;
37593;SDS011;23441;50.856;6.076;2024-01-27T11:45:01;11.52;;;3.05;;
37593;SDS011;23441;50.856;6.076;2024-01-27T11:47:47;7.88;;;2.38;;
37593;SDS011;23441;50.856;6.076;2024-01-27T11:50:33;9.85;;;2.50;;
37593;SDS011;23441;50.856;6.076;2024-01-27T11:53:19;5.85;;;1.70;;
37593;SDS011;23441;50.856;6.076;2024-01-27T11:56:06;13.90;;;2.25;;
37593;SDS011;23441;50.856;6.076;2024-01-27T11:58:52;8.07;;;2.33;;
37593;SDS011;23441;50.856;6.076;2024-01-27T12:01:39;9.00;;;2.50;;
37593;SDS011;23441;50.856;6.076;2024-01-27T12:04:25;11.77;;;2.35;;
37593;SDS011;23441;50.856;6.076;2024-01-27T12:07:11;5.30;;;2.00;;
37593;SDS011;23441;50.856;6.076;2024-01-27T12:09:58;9.63;;;2.00;;
37593;SDS011;23441;50.856;6.076;2024-01-27T12:12:44;9.43;;;2.10;;
37593;SDS011;23441;50.856;6.076;2024-01-27T12:15:30;5.60;;;2.50;;
37593;SDS011;23441;50.856;6.076;2024-01-27T12:18:16;8.73;;;2.05;;
37593;SDS011;23441;50.856;6.076;2024-01-27T12:21:03;8.68;;;2.63;;
37593;SDS011;23441;50.856;6.076;2024-01-27T12:23:53;18.13;;;2.92;;
37593;SDS011;23441;50.856;6.076;2024-01-27T12:26:40;8.73;;;2.00;;
37593;SDS011;23441;50.856;6.076;2024-01-27T12:29:27;10.20;;;2.60;;
37593;SDS011;23441;50.856;6.076;2024-01-27T12:32:14;5.80;;;2.05;;
37593;SDS011;23441;50.856;6.076;2024-01-27T12:35:06;9.80;;;2.38;;
37593;SDS011;23441;50.856;6.076;2024-01-27T12:37:53;5.95;;;1.85;;
37593;SDS011;23441;50.856;6.076;2024-01-27T12:40:39;9.75;;;1.95;;
37593;SDS011;23441;50.856;6.076;2024-01-27T12:43:25;7.53;;;2.17;;
37593;SDS011;23441;50.856;6.076;2024-01-27T12:46:11;7.93;;;1.90;;
37593;SDS011;23441;50.856;6.076;2024-01-27T12:48:57;16.50;;;2.45;;
37593;SDS011;23441;50.856;6.076;2024-01-27T12:51:43;9.88;;;2.50;;
37593;SDS011;23441;50.856;6.076;2024-01-27T12:54:31;6.47;;;2.00;;
37593;SDS011;23441;50.856;6.076;2024-01-27T12:57:17;7.38;;;2.40;;
37593;SDS011;23441;50.856;6.076;2024-01-27T13:00:05;9.13;;;1.92;;
37593;SDS011;23441;50.856;6.076;2024-01-27T13:02:55;7.75;;;2.00;;
37593;SDS011;23441;50.856;6.076;2024-01-27T13:05:42;8.20;;;2.33;;
37593;SDS011;23441;50.856;6.076;2024-01-27T13:08:28;7.60;;;2.38;;
37593;SDS011;23441;50.856;6.076;2024-01-27T13:11:14;10.57;;;2.40;;
37593;SDS011;23441;50.856;6.076;2024-01-27T13:14:00;6.25;;;2.05;;
37593;SDS011;23441;50.856;6.076;2024-01-27T13:16:46;7.13;;;1.80;;
37593;SDS011;23441;50.856;6.076;2024-01-27T13:19:32;5.88;;;2.05;;
37593;SDS011;23441;50.856;6.076;2024-01-27T13:22:18;7.53;;;1.90;;
37593;SDS011;23441;50.856;6.076;2024-01-27T13:25:06;6.28;;;2.40;;
37593;SDS011;23441;50.856;6.076;2024-01-27T13:27:52;11.27;;;3.17;;
37593;SDS011;23441;50.856;6.076;2024-01-27T13:30:40;10.75;;;3.10;;
37593;SDS011;23441;50.856;6.076;2024-01-27T13:33:27;11.18;;;2.97;;
37593;SDS011;23441;50.856;6.076;2024-01-27T13:36:14;6.18;;;2.50;;
37593;SDS011;23441;50.856;6.076;2024-01-27T13:39:00;6.80;;;2.45;;
37593;SDS011;23441;50.856;6.076;2024-01-27T13:41:46;8.30;;;2.40;;
37593;SDS011;23441;50.856;6.076;2024-01-27T13:44:32;9.52;;;2.40;;
37593;SDS011;23441;50.856;6.076;2024-01-27T13:47:21;12.95;;;2.47;;
37593;SDS011;23441;50.856;6.076;2024-01-27T13:50:07;8.48;;;2.47;;
37593;SDS011;23441;50.856;6.076;2024-01-27T13:52:54;9.20;;;2.47;;
37593;SDS011;23441;50.856;6.076;2024-01-27T13:55:40;7.35;;;2.42;;
37593;SDS011;23441;50.856;6.076;2024-01-27T13:58:28;10.38;;;2.90;;
37593;SDS011;23441;50.856;6.076;2024-01-27T14:01:14;7.15;;;3.58;;
37593;SDS011;23441;50.856;6.076;2024-01-27T14:04:00;13.95;;;2.63;;
37593;SDS011;23441;50.856;6.076;2024-01-27T14:06:46;7.55;;;2.20;;
37593;SDS011;23441;50.856;6.076;2024-01-27T14:09:32;7.82;;;2.35;;
37593;SDS011;23441;50.856;6.076;2024-01-27T14:12:19;7.10;;;2.15;;
37593;SDS011;23441;50.856;6.076;2024-01-27T14:15:06;8.75;;;2.42;;
37593;SDS011;23441;50.856;6.076;2024-01-27T14:17:53;8.15;;;2.83;;
37593;SDS011;23441;50.856;6.076;2024-01-27T14:20:40;7.10;;;2.35;;
37593;SDS011;23441;50.856;6.076;2024-01-27T14:23:26;14.30;;;2.10;;
37593;SDS011;23441;50.856;6.076;2024-01-27T14:26:12;8.25;;;2.67;;
37593;SDS011;23441;50.856;6.076;2024-01-27T14:29:00;13.32;;;2.42;;
37593;SDS011;23441;50.856;6.076;2024-01-27T14:31:46;13.85;;;2.30;;
37593;SDS011;23441;50.856;6.076;2024-01-27T14:34:32;9.60;;;2.40;;
37593;SDS011;23441;50.856;6.076;2024-01-27T14:37:18;11.98;;;2.42;;
37593;SDS011;23441;50.856;6.076;2024-01-27T14:40:04;9.77;;;2.60;;
37593;SDS011;23441;50.856;6.076;2024-01-27T14:42:51;13.60;;;3.05;;
37593;SDS011;23441;50.856;6.076;2024-01-27T14:45:37;10.70;;;3.00;;
37593;SDS011;23441;50.856;6.076;2024-01-27T14:48:24;11.00;;;2.35;;
37593;SDS011;23441;50.856;6.076;2024-01-27T14:51:11;11.48;;;2.60;;
37593;SDS011;23441;50.856;6.076;2024-01-27T14:53:58;5.18;;;2.10;;
37593;SDS011;23441;50.856;6.076;2024-01-27T14:56:49;8.80;;;2.90;;
37593;SDS011;23441;50.856;6.076;2024-01-27T14:59:35;6.25;;;2.30;;
37593;SDS011;23441;50.856;6.076;2024-01-27T15:02:21;9.50;;;2.85;;
37593;SDS011;23441;50.856;6.076;2024-01-27T15:05:07;6.53;;;2.45;;
37593;SDS011;23441;50.856;6.076;2024-01-27T15:07:53;9.75;;;2.55;;
37593;SDS011;23441;50.856;6.076;2024-01-27T15:10:40;7.40;;;2.60;;
37593;SDS011;23441;50.856;6.076;2024-01-27T15:13:28;12.77;;;3.28;;
37593;SDS011;23441;50.856;6.076;2024-01-27T15:16:14;14.75;;;3.35;;
37593;SDS011;23441;50.856;6.076;2024-01-27T15:19:00;10.27;;;3.20;;
37593;SDS011;23441;50.856;6.076;2024-01-27T15:21:46;9.88;;;3.60;;
37593;SDS011;23441;50.856;6.076;2024-01-27T15:24:32;12.50;;;3.28;;
37593;SDS011;23441;50.856;6.076;2024-01-27T15:27:21;12.40;;;2.97;;
37593;SDS011;23441;50.856;6.076;2024-01-27T15:30:08;16.13;;;3.58;;
37593;SDS011;23441;50.856;6.076;2024-01-27T15:32:54;10.80;;;3.45;;
37593;SDS011;23441;50.856;6.076;2024-01-27T15:35:40;8.05;;;3.63;;
37593;SDS011;23441;50.856;6.076;2024-01-27T15:38:26;11.43;;;4.38;;
37593;SDS011;23441;50.856;6.076;2024-01-27T15:41:12;17.35;;;5.75;;
37593;SDS011;23441;50.856;6.076;2024-01-27T15:43:58;12.95;;;5.05;;
37593;SDS011;23441;50.856;6.076;2024-01-27T15:46:44;12.60;;;4.35;;
37593;SDS011;23441;50.856;6.076;2024-01-27T15:49:29;8.85;;;4.22;;
37593;SDS011;23441;50.856;6.076;2024-01-27T15:52:15;13.95;;;4.13;;
37593;SDS011;23441;50.856;6.076;2024-01-27T15:55:01;13.25;;;3.90;;
37593;SDS011;23441;50.856;6.076;2024-01-27T15:57:47;11.27;;;3.75;;
37593;SDS011;23441;50.856;6.076;2024-01-27T16:00:33;9.75;;;3.83;;
37593;SDS011;23441;50.856;6.076;2024-01-27T16:03:19;9.38;;;4.10;;
37593;SDS011;23441;50.856;6.076;2024-01-27T16:06:05;12.18;;;4.07;;
37593;SDS011;23441;50.856;6.076;2024-01-27T16:08:53;12.32;;;4.68;;
37593;SDS011;23441;50.856;6.076;2024-01-27T16:11:39;11.95;;;4.20;;
37593;SDS011;23441;50.856;6.076;2024-01-27T16:14:25;13.07;;;4.72;;
37593;SDS011;23441;50.856;6.076;2024-01-27T16:17:11;12.45;;;3.90;;
37593;SDS011;23441;50.856;6.076;2024-01-27T16:19:57;11.45;;;3.67;;
37593;SDS011;23441;50.856;6.076;2024-01-27T16:22:43;11.85;;;3.88;;
37593;SDS011;23441;50.856;6.076;2024-01-27T16:25:29;10.55;;;3.50;;
37593;SDS011;23441;50.856;6.076;2024-01-27T16:28:15;8.52;;;3.80;;
37593;SDS011;23441;50.856;6.076;2024-01-27T16:31:01;10.93;;;3.75;;
37593;SDS011;23441;50.856;6.076;2024-01-27T16:33:47;9.27;;;3.35;;